Time;durP1;ratioP1;P1;durP2;ratioP2;P2;SDS_P1;SDS_P2;PMS_P1;PMS_P2;Temp;Humidity;BMP_temperature;BMP_pressure;BME280_temperature;BME280_humidity;BME280_pressure;Samples;Min_cycle;Max_cycle;Signal;HPM_P1;HPM_P2
2021/03/07 00:00:54;;;;;;;57.97;33.65;;;0.30;2201.60;;;;;;4891566;29;20064;-75
2021/03/07 00:04:11;;;;;;;70.55;37.22;;;0.40;2176.00;;;;;;4905602;29;20057;-75
2021/03/07 00:07:47;;;;;;;59.47;34.40;;;0.50;2150.40;;;;;;4940271;29;20047;-79
2021/03/07 00:10:43;;;;;;;63.30;34.85;;;0.50;2150.40;;;;;;4930904;29;20028;-80
2021/03/07 00:14:19;;;;;;;101.70;49.33;;;0.40;2176.00;;;;;;4850779;29;20053;-78
2021/03/07 00:17:56;;;;;;;101.18;47.75;;;0.20;2201.60;;;;;;4887081;29;20035;-78
2021/03/07 00:21:26;;;;;;;66.00;34.30;;;0.20;2176.00;;;;;;4878426;29;20041;-80
2021/03/07 00:24:57;;;;;;;63.42;36.05;;;0.30;2176.00;;;;;;4811739;29;20050;-80
2021/03/07 00:31:06;;;;;;;49.10;27.55;;;0.30;2176.00;;;;;;4896361;29;20424;-79
2021/03/07 00:34:34;;;;;;;48.78;26.95;;;0.10;2201.60;;;;;;4867096;29;20045;-80
2021/03/07 00:37:49;;;;;;;45.65;26.80;;;0.20;2176.00;;;;;;4870144;29;20037;-79
2021/03/07 00:41:02;;;;;;;41.75;25.42;;;0.40;2150.40;;;;;;4831440;29;20041;-82
2021/03/07 00:44:47;;;;;;;40.67;23.73;;;0.20;2150.40;;;;;;4875631;29;20030;-78
2021/03/07 00:47:55;;;;;;;46.00;26.65;;;0.00;2176.00;;;;;;4875278;29;20104;-78
2021/03/07 00:51:23;;;;;;;46.75;26.88;;;13.00;2201.60;;;;;;4858298;29;20014;-79
2021/03/07 00:54:47;;;;;;;51.20;27.88;;;12.90;2201.60;;;;;;4858236;29;20034;-78
2021/03/07 00:57:44;;;;;;;45.00;24.45;;;12.90;2201.60;;;;;;4839674;29;20118;-79
2021/03/07 01:01:15;;;;;;;46.83;25.80;;;13.00;2201.60;;;;;;4841937;29;20049;-79
2021/03/07 01:04:39;;;;;;;43.30;23.55;;;12.90;2201.60;;;;;;4842092;29;20042;-78
2021/03/07 01:07:59;;;;;;;48.33;24.65;;;13.10;2201.60;;;;;;4823954;29;20108;-78
2021/03/07 01:11:30;;;;;;;52.33;26.83;;;13.20;2201.60;;;;;;4823003;29;20039;-79
2021/03/07 01:20:46;;;;;;;42.65;24.05;;;13.20;2201.60;;;;;;4823310;29;20067;-77
2021/03/07 01:24:29;;;;;;;53.35;29.92;;;13.30;2201.60;;;;;;4829409;29;20054;-78
2021/03/07 01:27:44;;;;;;;48.22;27.17;;;13.60;2201.60;;;;;;4830282;29;20094;-77
2021/03/07 01:31:11;;;;;;;46.30;26.55;;;13.40;2201.60;;;;;;4860312;29;20045;-77
2021/03/07 01:34:32;;;;;;;38.28;23.02;;;38.40;2201.60;;;;;;4878458;29;20037;-78
2021/03/07 01:38:13;;;;;;;42.25;22.80;;;13.60;2201.60;;;;;;4860827;29;20044;-79
2021/03/07 01:41:01;;;;;;;42.88;25.65;;;13.50;2201.60;;;;;;4864677;29;20034;-80
2021/03/07 01:43:52;;;;;;;49.63;28.33;;;13.50;2201.60;;;;;;4880727;29;20045;-80
2021/03/07 01:47:13;;;;;;;70.82;40.00;;;13.40;2201.60;;;;;;4896517;29;20037;-78
2021/03/07 01:51:03;;;;;;;61.50;32.63;;;13.40;2201.60;;;;;;4843844;29;20038;-78
2021/03/07 01:53:57;;;;;;;53.75;28.33;;;13.30;2201.60;;;;;;4860901;29;20033;-78
2021/03/07 01:57:06;;;;;;;46.40;26.88;;;13.50;2201.60;;;;;;4860617;29;20037;-78
2021/03/07 02:00:09;;;;;;;58.22;27.67;;;13.60;2201.60;;;;;;4862985;29;20113;-77
2021/03/07 02:03:17;;;;;;;49.85;27.73;;;13.60;2201.60;;;;;;4878382;29;20038;-77
2021/03/07 02:06:30;;;;;;;39.50;20.85;;;13.50;2201.60;;;;;;4840944;29;20101;-77
2021/03/07 02:09:33;;;;;;;45.22;23.60;;;13.70;2201.60;;;;;;4852716;29;20049;-79
2021/03/07 02:16:44;;;;;;;37.83;19.13;;;13.70;2201.60;;;;;;4839467;29;20071;-79
2021/03/07 02:26:49;;;;;;;58.83;30.70;;;38.40;2201.60;;;;;;4823681;29;20054;-78
2021/03/07 02:29:41;;;;;;;59.53;32.08;;;38.40;2201.60;;;;;;4789880;30;20043;-78
2021/03/07 02:35:44;;;;;;;61.72;30.10;;;13.60;2201.60;;;;;;4794659;30;20053;-78
2021/03/07 02:38:57;;;;;;;65.60;31.35;;;13.70;2201.60;;;;;;4774356;30;20040;-78
2021/03/07 02:42:05;;;;;;;73.35;37.45;;;13.60;2201.60;;;;;;4774006;30;20024;-79
2021/03/07 02:45:07;;;;;;;64.63;34.97;;;13.60;2201.60;;;;;;4787980;30;20043;-77
2021/03/07 02:48:22;;;;;;;42.92;25.85;;;13.60;2201.60;;;;;;4846931;29;20034;-77
2021/03/07 02:51:31;;;;;;;54.30;30.45;;;38.50;2201.60;;;;;;4896101;29;20033;-78
2021/03/07 02:54:43;;;;;;;54.55;30.35;;;13.60;2201.60;;;;;;4894829;29;20085;-78
2021/03/07 02:57:46;;;;;;;53.90;28.57;;;38.40;2201.60;;;;;;4892630;29;20033;-78
2021/03/07 03:00:38;;;;;;;38.97;25.33;;;38.40;2201.60;;;;;;4908562;29;20051;-77
2021/03/07 03:03:59;;;;;;;38.78;21.92;;;38.40;2201.60;;;;;;4945426;29;20042;-77
2021/03/07 03:07:09;;;;;;;39.47;23.40;;;13.60;2201.60;;;;;;4967517;28;20050;-77
2021/03/07 03:10:19;;;;;;;35.25;21.88;;;13.60;2201.60;;;;;;5001169;28;20041;-78
2021/03/07 03:13:14;;;;;;;34.28;21.23;;;13.60;2201.60;;;;;;5011804;28;20031;-79
2021/03/07 03:15:48;;;;;;;39.10;21.65;;;13.50;2201.60;;;;;;5007690;28;20034;-78
2021/03/07 03:18:20;;;;;;;;;;;13.40;2201.60;;;;;;4958528;28;20030;-79
2021/03/07 03:21:37;;;;;;;42.10;26.83;;;13.50;2201.60;;;;;;4992326;28;19918;-78
2021/03/07 03:24:51;;;;;;;35.90;20.52;;;13.60;2201.60;;;;;;5012580;28;20054;-79
2021/03/07 03:27:45;;;;;;;30.77;18.13;;;13.50;2201.60;;;;;;4996122;28;20034;-77
2021/03/07 03:30:43;;;;;;;35.97;19.75;;;13.40;2201.60;;;;;;5007878;28;20027;-77
2021/03/07 03:34:05;;;;;;;52.78;28.20;;;13.50;2201.60;;;;;;4991866;28;20039;-77
2021/03/07 03:37:01;;;;;;;48.75;28.50;;;13.30;2201.60;;;;;;4991256;28;20031;-77
2021/03/07 03:39:40;;;;;;;74.38;41.17;;;13.20;2201.60;;;;;;4997529;28;20034;-79
2021/03/07 03:42:55;;;;;;;78.80;44.15;;;13.30;2201.60;;;;;;5003964;28;20069;-79
2021/03/07 03:46:04;;;;;;;73.07;39.65;;;38.50;2201.60;;;;;;5009184;28;20031;-77
2021/03/07 03:48:49;;;;;;;72.32;42.53;;;13.70;2201.60;;;;;;4979967;28;20089;-78
2021/03/07 03:51:45;;;;;;;69.68;41.35;;;13.60;2201.60;;;;;;5001638;28;20066;-79
2021/03/07 03:55:14;;;;;;;58.08;35.90;;;13.50;2201.60;;;;;;4969033;28;20062;-79
2021/03/07 04:02:29;;;;;;;59.92;35.30;;;13.50;2201.60;;;;;;4952337;29;20051;-78
2021/03/07 04:05:49;;;;;;;61.65;33.78;;;13.60;2201.60;;;;;;4946986;29;20070;-79
2021/03/07 04:12:26;;;;;;;54.25;31.92;;;13.60;2201.60;;;;;;4949528;29;20068;-78
2021/03/07 04:15:41;;;;;;;55.58;30.13;;;13.60;2201.60;;;;;;4949205;29;20043;-78
2021/03/07 04:18:31;;;;;;;52.15;31.88;;;13.50;2201.60;;;;;;4934767;29;20103;-78
2021/03/07 04:21:23;;;;;;;69.38;49.75;;;13.60;2201.60;;;;;;4929146;28;20055;-78
2021/03/07 04:24:13;;;;;;;60.33;33.08;;;13.70;2201.60;;;;;;4985567;28;20532;-80
2021/03/07 04:27:39;;;;;;;44.70;24.70;;;38.40;2201.60;;;;;;5008476;28;20042;-77
2021/03/07 04:30:35;;;;;;;39.47;22.45;;;13.70;2201.60;;;;;;4989918;28;20035;-78
2021/03/07 04:33:17;;;;;;;44.78;27.63;;;38.40;2201.60;;;;;;4930889;29;20061;-78
2021/03/07 04:36:05;;;;;;;43.50;27.42;;;13.60;2201.60;;;;;;4931132;29;20036;-77
2021/03/07 04:39:05;;;;;;;43.90;26.58;;;13.50;2201.60;;;;;;4929947;29;20064;-77
2021/03/07 04:41:57;;;;;;;43.40;26.20;;;13.70;2201.60;;;;;;4912986;29;20032;-77
2021/03/07 04:44:52;;;;;;;57.15;34.60;;;13.70;2201.60;;;;;;4930781;29;20096;-78
2021/03/07 04:47:57;;;;;;;50.03;30.40;;;38.80;2201.60;;;;;;4922583;29;20115;-77
2021/03/07 04:51:12;;;;;;;55.33;32.63;;;38.40;2201.60;;;;;;4931662;29;20032;-78
2021/03/07 04:54:04;;;;;;;73.45;38.67;;;38.40;2201.60;;;;;;4952237;29;20043;-78
2021/03/07 04:56:53;;;;;;;71.53;39.15;;;39.10;2201.60;;;;;;4938175;29;20028;-79
2021/03/07 04:59:50;;;;;;;63.58;35.13;;;39.30;2201.60;;;;;;4923365;29;20043;-78
2021/03/07 05:09:31;;;;;;;46.95;27.30;;;64.10;2201.60;;;;;;4955901;29;20135;-79
2021/03/07 05:13:26;;;;;;;55.55;30.05;;;39.30;2201.60;;;;;;4941341;28;20038;-80
2021/03/07 05:20:20;;;;;;;69.68;37.45;;;39.00;2201.60;;;;;;4935052;29;20051;-78
2021/03/07 05:23:59;;;;;;;85.43;46.05;;;38.90;2201.60;;;;;;4931569;29;20047;-77
2021/03/07 05:34:12;;;;;;;50.85;30.92;;;64.20;2201.60;;;;;;4884445;29;20046;-79
2021/03/07 05:37:47;;;;;;;57.50;32.28;;;64.30;2201.60;;;;;;4884048;29;20094;-79
2021/03/07 05:41:11;;;;;;;64.93;36.50;;;39.20;2201.60;;;;;;4902618;29;20036;-78
2021/03/07 05:44:27;;;;;;;116.07;60.42;;;38.80;2201.60;;;;;;4899768;29;20033;-77
2021/03/07 05:47:19;;;;;;;91.55;51.80;;;38.60;2201.60;;;;;;4898771;29;20033;-77
2021/03/07 05:49:46;;;;;;;87.07;47.90;;;38.90;2201.60;;;;;;4892386;29;20062;-77
2021/03/07 05:52:39;;;;;;;93.88;51.03;;;38.60;2201.60;;;;;;4893567;29;20043;-77
2021/03/07 05:55:05;;;;;;;79.50;45.67;;;38.40;2201.60;;;;;;4893496;29;20097;-77
2021/03/07 05:57:33;;;;;;;63.72;35.75;;;38.40;2201.60;;;;;;4901253;29;20029;-77
2021/03/07 06:00:08;;;;;;;71.00;42.65;;;39.00;2201.60;;;;;;4921372;29;20116;-77
2021/03/07 06:02:37;;;;;;;64.90;36.53;;;39.20;2201.60;;;;;;4955295;29;20028;-77
2021/03/07 06:05:03;;;;;;;62.72;35.42;;;64.00;2201.60;;;;;;4968199;28;20039;-78
2021/03/07 06:07:29;;;;;;;60.88;33.28;;;39.30;2201.60;;;;;;4969486;29;20576;-77
2021/03/07 06:10:16;;;;;;;58.50;33.10;;;39.30;2201.60;;;;;;4970423;29;20425;-76
2021/03/07 06:13:09;;;;;;;58.22;35.45;;;39.10;2201.60;;;;;;4969552;29;20039;-77
2021/03/07 06:15:39;;;;;;;67.45;37.83;;;39.00;2201.60;;;;;;4988343;28;20046;-77
2021/03/07 06:18:13;;;;;;;54.42;31.10;;;38.70;2201.60;;;;;;5008951;28;20031;-77
2021/03/07 06:20:44;;;;;;;58.75;33.30;;;38.70;2201.60;;;;;;5009681;28;20026;-77
2021/03/07 06:23:10;;;;;;;55.67;31.27;;;38.70;2201.60;;;;;;5007464;28;20054;-77
2021/03/07 06:26:08;;;;;;;48.03;28.30;;;38.70;2201.60;;;;;;5010312;28;20026;-77
2021/03/07 06:28:36;;;;;;;75.55;40.20;;;38.60;2201.60;;;;;;4996379;28;20462;-77
2021/03/07 06:31:28;;;;;;;82.03;40.70;;;38.70;2201.60;;;;;;5009280;28;20027;-77
2021/03/07 06:33:59;;;;;;;71.38;38.78;;;38.40;2201.60;;;;;;5000890;28;20046;-77
2021/03/07 06:37:11;;;;;;;64.60;39.83;;;13.60;2201.60;;;;;;4991264;28;20062;-77
2021/03/07 06:39:54;;;;;;;47.97;28.23;;;13.50;2201.60;;;;;;5009468;28;20132;-77
2021/03/07 06:43:12;;;;;;;51.60;30.83;;;13.70;2201.60;;;;;;4977985;28;20025;-77
2021/03/07 06:46:56;;;;;;;50.28;30.23;;;38.60;2201.60;;;;;;5011627;28;20532;-78
2021/03/07 06:50:26;;;;;;;55.58;32.10;;;13.50;2201.60;;;;;;4988079;28;20031;-78
2021/03/07 06:53:55;;;;;;;74.88;40.28;;;13.30;2201.60;;;;;;4992060;28;20043;-78
2021/03/07 06:57:13;;;;;;;65.47;35.90;;;13.40;2201.60;;;;;;4898975;29;20519;-78
2021/03/07 07:00:02;;;;;;;50.92;31.75;;;13.70;2201.60;;;;;;4952775;28;20057;-79
2021/03/07 07:03:24;;;;;;;89.90;49.03;;;38.40;2201.60;;;;;;4991025;28;20186;-78
2021/03/07 07:06:56;;;;;;;50.25;31.65;;;13.70;2201.60;;;;;;4876648;29;20036;-78
2021/03/07 07:10:45;;;;;;;54.97;33.70;;;13.60;2201.60;;;;;;4841340;29;20062;-78
2021/03/07 07:13:46;;;;;;;49.65;29.15;;;13.60;2201.60;;;;;;4820518;29;20099;-78
2021/03/07 07:16:22;;;;;;;67.32;40.67;;;13.70;2201.60;;;;;;4845898;29;20376;-78
2021/03/07 07:19:26;;;;;;;41.25;25.00;;;13.50;2201.60;;;;;;4877527;29;20056;-78
2021/03/07 07:21:55;;;;;;;42.03;26.70;;;13.40;2201.60;;;;;;4892276;29;20041;-76
2021/03/07 07:24:23;;;;;;;117.78;73.95;;;13.40;2201.60;;;;;;4890583;29;20119;-77
2021/03/07 07:26:49;;;;;;;101.55;61.88;;;13.30;2201.60;;;;;;4893974;29;20048;-76
2021/03/07 07:29:17;;;;;;;69.47;41.78;;;13.10;2201.60;;;;;;4910590;29;20040;-76
2021/03/07 07:32:07;;;;;;;55.40;43.97;;;0.40;2201.60;;;;;;4910694;29;20028;-76
2021/03/07 07:35:38;;;;;;;54.55;38.30;;;0.20;2201.60;;;;;;4925804;29;20028;-77
2021/03/07 07:38:25;;;;;;;53.90;39.85;;;0.40;2201.60;;;;;;4935513;29;20094;-75
2021/03/07 07:40:51;;;;;;;42.30;31.10;;;0.60;2150.40;;;;;;4926542;29;20023;-76
2021/03/07 07:43:17;;;;;;;47.38;31.02;;;0.80;2176.00;;;;;;4947761;28;20036;-77
2021/03/07 07:45:43;;;;;;;34.33;22.17;;;0.80;2150.40;;;;;;4984878;28;20026;-76
2021/03/07 07:48:09;;;;;;;46.70;25.40;;;25.60;2099.20;;;;;;4985355;28;20031;-75
2021/03/07 07:50:37;;;;;;;58.05;40.50;;;25.80;2099.20;;;;;;4984236;28;20037;-75
2021/03/07 07:53:12;;;;;;;48.45;32.45;;;25.80;2073.60;;;;;;4985395;28;20037;-77
2021/03/07 07:55:53;;;;;;;42.55;27.55;;;25.90;2099.20;;;;;;4983978;28;20058;-76
2021/03/07 07:58:34;;;;;;;38.58;26.20;;;26.00;2073.60;;;;;;5000302;28;20061;-75
2021/03/07 08:01:04;;;;;;;41.40;26.42;;;26.20;2073.60;;;;;;4984924;28;20130;-76
2021/03/07 08:03:49;;;;;;;36.92;23.55;;;26.20;2099.20;;;;;;4983537;28;20031;-76
2021/03/07 08:06:39;;;;;;;32.60;21.98;;;26.20;2099.20;;;;;;4996528;28;20030;-75
2021/03/07 08:09:38;;;;;;;33.40;22.90;;;26.30;2073.60;;;;;;4958687;28;20053;-77
2021/03/07 08:12:44;;;;;;;38.95;25.35;;;26.40;2073.60;;;;;;4982118;28;20026;-77
2021/03/07 08:15:25;;;;;;;32.60;23.30;;;26.40;2073.60;;;;;;4982949;28;20026;-79
2021/03/07 08:17:53;;;;;;;39.33;24.30;;;26.40;2073.60;;;;;;4981992;28;20109;-77
2021/03/07 08:20:39;;;;;;;42.83;25.58;;;51.20;2099.20;;;;;;4981432;28;20026;-76
2021/03/07 08:23:15;;;;;;;39.75;26.10;;;51.30;2099.20;;;;;;4994789;28;20034;-79
2021/03/07 08:25:50;;;;;;;47.00;28.92;;;51.40;2073.60;;;;;;4972808;28;20428;-78
2021/03/07 08:28:28;;;;;;;46.63;27.42;;;51.50;2073.60;;;;;;4985620;28;20034;-79
2021/03/07 08:31:29;;;;;;;36.83;24.98;;;51.70;2048.00;;;;;;4987950;28;20077;-79
2021/03/07 08:34:19;;;;;;;44.92;28.42;;;51.80;2022.40;;;;;;4979504;28;20069;-77
2021/03/07 08:36:58;;;;;;;39.00;25.88;;;51.90;2022.40;;;;;;4993915;28;20488;-80
2021/03/07 08:39:24;;;;;;;30.48;20.17;;;51.90;1996.80;;;;;;4988741;28;20038;-79
2021/03/07 08:41:50;;;;;;;41.20;26.48;;;52.00;1971.20;;;;;;4985781;28;20023;-77
2021/03/07 08:44:16;;;;;;;26.63;19.92;;;52.10;1971.20;;;;;;4984997;28;20026;-77
2021/03/07 08:46:47;;;;;;;38.08;24.02;;;51.90;1971.20;;;;;;4986416;28;20026;-77
2021/03/07 08:49:14;;;;;;;29.50;21.65;;;52.10;1971.20;;;;;;4987520;28;20026;-79
2021/03/07 08:51:42;;;;;;;36.38;23.65;;;52.10;1971.20;;;;;;4988003;28;20023;-79
2021/03/07 08:54:12;;;;;;;39.33;23.42;;;76.90;1945.60;;;;;;4988093;28;20464;-77
2021/03/07 08:56:41;;;;;;;48.78;24.17;;;77.10;1920.00;;;;;;4989449;28;20468;-79
2021/03/07 08:59:08;;;;;;;30.30;21.30;;;77.20;1920.00;;;;;;4983100;28;20546;-77
2021/03/07 09:01:36;;;;;;;45.72;29.92;;;77.30;1920.00;;;;;;4998735;28;20034;-77
2021/03/07 09:04:04;;;;;;;35.83;19.88;;;77.40;1920.00;;;;;;4998582;28;20027;-78
2021/03/07 09:06:44;;;;;;;33.47;22.25;;;77.60;1817.60;;;;;;4998378;28;20040;-78
2021/03/07 09:09:22;;;;;;;31.40;20.65;;;77.60;1817.60;;;;;;4996044;28;20061;-77
2021/03/07 09:12:01;;;;;;;32.03;21.05;;;77.60;1817.60;;;;;;4983065;28;20026;-77
2021/03/07 09:14:39;;;;;;;27.05;18.02;;;102.40;1766.40;;;;;;4982361;28;20023;-77
2021/03/07 09:17:08;;;;;;;26.50;17.25;;;102.40;1715.20;;;;;;4998472;28;20038;-78
2021/03/07 09:19:36;;;;;;;30.23;19.27;;;102.60;1689.60;;;;;;5000226;28;20121;-77
2021/03/07 09:22:28;;;;;;;34.50;23.00;;;102.70;1689.60;;;;;;4994458;28;20026;-77
2021/03/07 09:25:15;;;;;;;29.42;18.98;;;102.80;1715.20;;;;;;4993771;28;20046;-77
2021/03/07 09:27:42;;;;;;;30.30;20.40;;;102.70;1689.60;;;;;;5007976;28;20085;-77
2021/03/07 09:30:10;;;;;;;36.63;24.80;;;102.70;1664.00;;;;;;4982226;28;20022;-77
2021/03/07 09:32:47;;;;;;;31.15;19.35;;;102.80;1638.40;;;;;;4997312;28;20110;-77
2021/03/07 09:35:27;;;;;;;33.92;20.83;;;103.10;1664.00;;;;;;4996124;28;20038;-78
2021/03/07 09:38:05;;;;;;;44.00;26.73;;;103.20;1612.80;;;;;;5006217;28;20025;-76
2021/03/07 09:40:37;;;;;;;37.85;25.30;;;103.30;1561.60;;;;;;4997012;28;20073;-73
2021/03/07 09:43:10;;;;;;;30.67;19.70;;;128.10;1587.20;;;;;;5001244;28;20553;-74
2021/03/07 09:45:43;;;;;;;32.03;16.42;;;128.30;1561.60;;;;;;4996836;28;20395;-73
2021/03/07 09:48:09;;;;;;;29.85;18.90;;;128.30;1536.00;;;;;;5007507;28;20026;-73
2021/03/07 09:50:35;;;;;;;23.33;15.00;;;128.30;1510.40;;;;;;4987901;28;20026;-75
2021/03/07 09:53:03;;;;;;;26.20;18.30;;;128.40;1484.80;;;;;;5014017;28;20018;-76
2021/03/07 09:55:32;;;;;;;19.27;12.43;;;128.60;1510.40;;;;;;4999751;28;20026;-75
2021/03/07 09:58:04;;;;;;;21.92;14.98;;;128.70;1484.80;;;;;;5001430;28;20033;-76
2021/03/07 10:00:32;;;;;;;22.40;14.32;;;128.80;1459.20;;;;;;5018658;28;20026;-76
2021/03/07 10:02:58;;;;;;;29.17;17.85;;;128.90;1484.80;;;;;;5001375;28;20353;-75
2021/03/07 10:05:24;;;;;;;31.88;21.27;;;128.90;1484.80;;;;;;5018667;28;20026;-76
2021/03/07 10:07:50;;;;;;;26.00;15.25;;;128.60;1510.40;;;;;;5000912;28;20029;-76
2021/03/07 10:10:23;;;;;;;15.77;10.63;;;153.80;1433.60;;;;;;5015059;28;20523;-76
2021/03/07 10:12:52;;;;;;;27.83;15.85;;;153.80;1408.00;;;;;;5004795;28;20490;-79
2021/03/07 10:15:34;;;;;;;44.05;23.70;;;153.90;1408.00;;;;;;4997868;28;20069;-75
2021/03/07 10:18:03;;;;;;;61.22;34.28;;;154.10;1408.00;;;;;;5008864;28;20029;-78
2021/03/07 10:20:33;;;;;;;20.13;13.50;;;154.10;1382.40;;;;;;4998737;28;20053;-76
2021/03/07 10:23:00;;;;;;;32.15;12.77;;;154.10;1356.80;;;;;;4980123;28;20027;-76
2021/03/07 10:25:27;;;;;;;28.50;19.25;;;153.90;1382.40;;;;;;4994258;28;20093;-76
2021/03/07 10:28:02;;;;;;;13.75;9.70;;;153.80;1382.40;;;;;;4983700;28;20109;-76
2021/03/07 10:30:31;;;;;;;17.10;11.57;;;154.00;1356.80;;;;;;4993768;28;20034;-74
2021/03/07 10:33:19;;;;;;;15.65;9.20;;;154.30;1356.80;;;;;;5009322;28;20022;-73
2021/03/07 10:36:12;;;;;;;12.25;8.32;;;154.50;1331.20;;;;;;4993613;28;20030;-73
2021/03/07 10:38:39;;;;;;;23.67;16.73;;;179.20;1305.60;;;;;;4979703;28;20045;-73
2021/03/07 10:41:24;;;;;;;24.60;16.77;;;179.20;1331.20;;;;;;4998588;28;20105;-74
2021/03/07 10:43:56;;;;;;;27.75;15.40;;;154.40;1331.20;;;;;;4997203;28;20022;-75
2021/03/07 10:46:28;;;;;;;20.40;13.45;;;154.30;1356.80;;;;;;4985401;28;20104;-75
2021/03/07 10:48:55;;;;;;;30.85;20.48;;;154.50;1305.60;;;;;;5016486;28;20044;-75
2021/03/07 10:51:22;;;;;;;24.33;15.32;;;179.30;1331.20;;;;;;4995235;28;20116;-74
2021/03/07 10:53:48;;;;;;;23.67;15.55;;;179.40;1280.00;;;;;;5005178;28;20029;-75
2021/03/07 10:56:13;;;;;;;18.08;11.38;;;179.50;1280.00;;;;;;4995921;28;20030;-76
2021/03/07 10:58:39;;;;;;;14.35;9.68;;;179.70;1254.40;;;;;;5014612;28;20525;-75
2021/03/07 11:01:05;;;;;;;33.80;20.85;;;179.60;1254.40;;;;;;5006138;28;20023;-75
2021/03/07 11:03:32;;;;;;;21.05;14.75;;;179.90;1254.40;;;;;;5003903;28;20033;-75
2021/03/07 11:05:58;;;;;;;27.33;17.20;;;179.90;1254.40;;;;;;4994397;28;20025;-75
2021/03/07 11:08:24;;;;;;;26.67;17.67;;;205.10;1228.80;;;;;;5000468;28;20475;-76
2021/03/07 11:10:50;;;;;;;15.70;10.27;;;205.10;1228.80;;;;;;4995480;28;20394;-75
2021/03/07 11:13:16;;;;;;;25.00;16.70;;;205.00;1228.80;;;;;;5010189;28;20030;-77
2021/03/07 11:15:41;;;;;;;23.60;15.50;;;205.10;1228.80;;;;;;4990942;28;20026;-77
2021/03/07 11:18:07;;;;;;;18.45;12.30;;;205.30;1203.20;;;;;;5006284;28;20042;-77
2021/03/07 11:20:33;;;;;;;20.75;11.45;;;205.60;1177.60;;;;;;4993054;28;20423;-77
2021/03/07 11:22:59;;;;;;;17.08;10.63;;;230.40;1152.00;;;;;;5003899;28;20038;-77
2021/03/07 11:25:25;;;;;;;21.83;14.52;;;230.50;1152.00;;;;;;4996583;28;20042;-78
2021/03/07 11:27:50;;;;;;;16.40;9.77;;;230.60;1152.00;;;;;;4982598;28;20423;-76
2021/03/07 11:30:17;;;;;;;17.58;12.75;;;230.40;1126.40;;;;;;4981680;28;20022;-76
2021/03/07 11:32:42;;;;;;;23.73;14.80;;;230.50;1152.00;;;;;;4984222;28;20496;-77
2021/03/07 11:35:09;;;;;;;16.20;10.18;;;230.90;1152.00;;;;;;4992668;28;20057;-76
2021/03/07 11:37:35;;;;;;;28.00;21.52;;;231.00;1126.40;;;;;;4978700;28;20145;-77
2021/03/07 11:40:01;;;;;;;24.65;17.55;;;231.30;1152.00;;;;;;4996440;28;20175;-77
2021/03/07 11:42:28;;;;;;;21.38;14.32;;;256.00;1177.60;;;;;;5009678;28;20124;-78
2021/03/07 11:44:54;;;;;;;34.33;20.25;;;256.40;1126.40;;;;;;4931329;28;21824;-84
2021/03/07 11:47:20;;;;;;;24.60;15.32;;;256.70;1075.20;;;;;;4905885;29;20043;-87
2021/03/07 11:49:46;;;;;;;15.05;10.60;;;281.60;1075.20;;;;;;4935983;29;20046;-84
2021/03/07 11:52:12;;;;;;;28.90;18.25;;;256.90;1024.00;;;;;;4953126;28;20023;-86
2021/03/07 11:54:38;;;;;;;24.90;18.20;;;281.80;1049.60;;;;;;4939116;29;20038;-87
2021/03/07 11:57:05;;;;;;;23.23;14.38;;;282.20;1024.00;;;;;;4940042;28;20035;-79
2021/03/07 11:59:32;;;;;;;15.90;11.43;;;282.50;998.40;;;;;;4950104;28;20050;-79
2021/03/07 12:01:57;;;;;;;23.27;15.38;;;307.50;1024.00;;;;;;4964948;28;20037;-79
2021/03/07 12:04:23;;;;;;;18.90;12.40;;;307.40;1049.60;;;;;;4955551;28;20026;-81
2021/03/07 12:06:49;;;;;;;30.15;19.15;;;307.50;972.80;;;;;;4957156;28;20077;-81
2021/03/07 12:09:15;;;;;;;38.90;25.05;;;307.70;972.80;;;;;;4954505;28;20043;-82
2021/03/07 12:11:41;;;;;;;20.65;12.98;;;307.90;1024.00;;;;;;4955697;28;20034;-77
2021/03/07 12:14:06;;;;;;;24.88;16.67;;;308.10;972.80;;;;;;4969279;28;20464;-80
2021/03/07 12:16:32;;;;;;;24.98;14.90;;;332.90;998.40;;;;;;4954048;28;20038;-81
2021/03/07 12:18:58;;;;;;;22.52;13.05;;;332.90;998.40;;;;;;4970297;28;20059;-79
2021/03/07 12:21:24;;;;;;;39.15;25.83;;;308.00;921.60;;;;;;4955420;28;20027;-79
2021/03/07 12:23:50;;;;;;;42.15;26.73;;;332.80;998.40;;;;;;4970967;28;20027;-77
2021/03/07 12:26:15;;;;;;;25.95;17.48;;;332.90;998.40;;;;;;4953161;28;20078;-78
2021/03/07 12:28:41;;;;;;;36.90;26.80;;;333.10;972.80;;;;;;4960190;28;20042;-80
2021/03/07 12:31:07;;;;;;;49.10;31.83;;;333.20;998.40;;;;;;4962714;28;20027;-80
2021/03/07 12:33:34;;;;;;;30.73;21.80;;;333.30;972.80;;;;;;4965557;28;20485;-78
2021/03/07 12:35:59;;;;;;;39.35;24.88;;;333.60;972.80;;;;;;4955717;28;20477;-81
2021/03/07 12:38:25;;;;;;;37.28;25.02;;;333.70;947.20;;;;;;4973058;28;20035;-81
2021/03/07 12:40:51;;;;;;;36.83;25.15;;;358.40;921.60;;;;;;4952745;28;20039;-82
2021/03/07 12:43:17;;;;;;;26.83;18.48;;;358.60;921.60;;;;;;4960162;28;20027;-78
2021/03/07 12:45:44;;;;;;;33.22;22.77;;;358.60;921.60;;;;;;4942688;28;20031;-84
2021/03/07 12:48:10;;;;;;;36.63;26.00;;;358.50;921.60;;;;;;4935227;29;20486;-83
2021/03/07 12:50:36;;;;;;;25.73;18.48;;;358.50;947.20;;;;;;4935807;29;20129;-83
2021/03/07 12:53:04;;;;;;;18.33;13.82;;;358.70;921.60;;;;;;4937866;29;20118;-84
2021/03/07 12:55:30;;;;;;;21.75;15.30;;;358.80;921.60;;;;;;4955565;29;20034;-84
2021/03/07 12:57:56;;;;;;;17.23;11.70;;;358.80;896.00;;;;;;4938089;29;20035;-84
2021/03/07 13:00:23;;;;;;;28.33;17.58;;;358.80;844.80;;;;;;4955009;29;20136;-85
2021/03/07 13:02:48;;;;;;;19.23;12.63;;;359.10;896.00;;;;;;4954134;29;20038;-84
2021/03/07 13:05:14;;;;;;;23.10;14.27;;;359.00;844.80;;;;;;4955664;29;20028;-84
2021/03/07 13:07:40;;;;;;;28.98;17.60;;;359.00;870.40;;;;;;4954967;29;20090;-85
2021/03/07 13:10:07;;;;;;;21.13;13.57;;;359.00;896.00;;;;;;4938664;29;20031;-83
2021/03/07 13:12:33;;;;;;;33.17;18.58;;;359.00;870.40;;;;;;4937988;29;20118;-84
2021/03/07 13:14:59;;;;;;;41.83;26.17;;;359.10;896.00;;;;;;4939059;29;20122;-85
2021/03/07 13:17:25;;;;;;;17.15;10.82;;;359.30;870.40;;;;;;4941625;29;20034;-84
2021/03/07 13:19:51;;;;;;;37.25;24.55;;;359.00;870.40;;;;;;4941470;29;20031;-84
2021/03/07 13:22:17;;;;;;;30.00;19.05;;;359.10;844.80;;;;;;4958543;29;20027;-84
2021/03/07 13:24:42;;;;;;;29.42;17.77;;;359.30;870.40;;;;;;4941185;29;20055;-84
2021/03/07 13:27:08;;;;;;;20.27;14.25;;;384.00;896.00;;;;;;4941899;29;20057;-84
2021/03/07 13:29:34;;;;;;;32.45;21.05;;;359.30;896.00;;;;;;4958636;29;20115;-85
2021/03/07 13:32:00;;;;;;;21.77;15.25;;;384.10;870.40;;;;;;4958396;29;20027;-84
2021/03/07 13:34:26;;;;;;;21.27;13.85;;;384.00;870.40;;;;;;4942250;29;20389;-85
2021/03/07 13:36:51;;;;;;;20.88;15.10;;;384.00;870.40;;;;;;4958697;29;20102;-85
2021/03/07 13:39:17;;;;;;;22.80;14.38;;;384.10;870.40;;;;;;4941155;29;20059;-85
2021/03/07 13:41:43;;;;;;;34.95;23.13;;;359.30;844.80;;;;;;4941754;29;20039;-82
2021/03/07 13:44:09;;;;;;;33.13;21.63;;;384.00;870.40;;;;;;4958058;29;20401;-82
2021/03/07 13:46:34;;;;;;;34.08;22.75;;;384.20;896.00;;;;;;4958575;29;20105;-82
2021/03/07 13:49:00;;;;;;;22.48;15.98;;;384.20;870.40;;;;;;4940756;29;20393;-83
2021/03/07 13:51:26;;;;;;;30.40;21.33;;;384.00;844.80;;;;;;4958347;29;20031;-83
2021/03/07 13:53:51;;;;;;;21.02;15.63;;;384.10;844.80;;;;;;4957984;29;20020;-82
2021/03/07 13:56:17;;;;;;;44.80;33.05;;;384.10;870.40;;;;;;4957987;29;20030;-83
2021/03/07 13:58:43;;;;;;;36.38;28.85;;;384.30;844.80;;;;;;4956728;29;20039;-83
2021/03/07 14:01:09;;;;;;;30.42;21.10;;;384.30;896.00;;;;;;4958422;29;20086;-82
2021/03/07 14:03:34;;;;;;;28.25;20.67;;;384.20;870.40;;;;;;4957459;29;20043;-82
2021/03/07 14:06:00;;;;;;;19.95;14.73;;;384.10;870.40;;;;;;4958596;29;20023;-83
2021/03/07 14:08:26;;;;;;;31.17;20.17;;;384.00;870.40;;;;;;4958285;29;20035;-83
2021/03/07 14:10:52;;;;;;;19.00;13.68;;;384.00;870.40;;;;;;4944910;29;20541;-84
2021/03/07 14:13:18;;;;;;;18.65;12.18;;;359.00;870.40;;;;;;4957402;29;20035;-84
2021/03/07 14:15:43;;;;;;;22.88;15.77;;;358.80;870.40;;;;;;4940806;29;20380;-84
2021/03/07 14:18:09;;;;;;;22.75;15.68;;;358.90;896.00;;;;;;4957184;29;20106;-83
2021/03/07 14:20:35;;;;;;;28.45;19.63;;;359.00;896.00;;;;;;4957730;29;20038;-83
2021/03/07 14:23:01;;;;;;;21.92;15.65;;;358.80;896.00;;;;;;4956553;29;20058;-83